sensor_id;sensor_type;location;lat;lon;timestamp;temperature;humidity
30174;DHT22;16985;50.814;8.530;2023-05-07T00:01:38;14.00;99.90
30174;DHT22;16985;50.814;8.530;2023-05-07T00:04:04;13.90;99.90
30174;DHT22;16985;50.814;8.530;2023-05-07T00:06:30;13.90;99.90
30174;DHT22;16985;50.814;8.530;2023-05-07T00:08:58;13.90;99.90
30174;DHT22;16985;50.814;8.530;2023-05-07T00:11:25;13.90;99.90
30174;DHT22;16985;50.814;8.530;2023-05-07T00:13:51;13.90;99.90
30174;DHT22;16985;50.814;8.530;2023-05-07T00:16:17;13.90;99.90
30174;DHT22;16985;50.814;8.530;2023-05-07T00:18:43;13.80;99.90
30174;DHT22;16985;50.814;8.530;2023-05-07T00:21:10;13.80;99.90
30174;DHT22;16985;50.814;8.530;2023-05-07T00:23:37;13.80;99.90
30174;DHT22;16985;50.814;8.530;2023-05-07T00:26:03;13.80;99.90
30174;DHT22;16985;50.814;8.530;2023-05-07T00:28:30;13.80;99.90
30174;DHT22;16985;50.814;8.530;2023-05-07T00:30:56;13.80;99.90
30174;DHT22;16985;50.814;8.530;2023-05-07T00:33:22;13.70;99.90
30174;DHT22;16985;50.814;8.530;2023-05-07T00:35:48;13.70;99.90
30174;DHT22;16985;50.814;8.530;2023-05-07T00:38:14;13.70;99.90
30174;DHT22;16985;50.814;8.530;2023-05-07T00:40:40;13.70;99.90
30174;DHT22;16985;50.814;8.530;2023-05-07T00:43:06;13.70;99.90
30174;DHT22;16985;50.814;8.530;2023-05-07T00:45:33;13.70;99.90
30174;DHT22;16985;50.814;8.530;2023-05-07T00:48:01;13.70;99.90
30174;DHT22;16985;50.814;8.530;2023-05-07T00:50:28;13.70;99.90
30174;DHT22;16985;50.814;8.530;2023-05-07T00:53:02;13.60;99.90
30174;DHT22;16985;50.814;8.530;2023-05-07T00:55:29;13.60;99.90
30174;DHT22;16985;50.814;8.530;2023-05-07T00:57:55;13.60;99.90
30174;DHT22;16985;50.814;8.530;2023-05-07T01:00:22;13.60;99.90
30174;DHT22;16985;50.814;8.530;2023-05-07T01:02:48;13.60;99.90
30174;DHT22;16985;50.814;8.530;2023-05-07T01:05:16;13.60;99.90
30174;DHT22;16985;50.814;8.530;2023-05-07T01:07:43;11.20;99.90
30174;DHT22;16985;50.814;8.530;2023-05-07T01:10:10;13.60;99.90
30174;DHT22;16985;50.814;8.530;2023-05-07T01:12:38;13.50;99.90
30174;DHT22;16985;50.814;8.530;2023-05-07T01:15:05;13.50;99.90
30174;DHT22;16985;50.814;8.530;2023-05-07T01:17:34;13.50;99.90
30174;DHT22;16985;50.814;8.530;2023-05-07T01:20:02;13.50;99.90
30174;DHT22;16985;50.814;8.530;2023-05-07T01:22:35;13.50;99.90
30174;DHT22;16985;50.814;8.530;2023-05-07T01:25:06;13.50;99.90
30174;DHT22;16985;50.814;8.530;2023-05-07T01:27:34;13.50;99.90
30174;DHT22;16985;50.814;8.530;2023-05-07T01:30:03;13.50;99.90
30174;DHT22;16985;50.814;8.530;2023-05-07T01:33:03;13.50;99.90
30174;DHT22;16985;50.814;8.530;2023-05-07T01:35:42;13.50;99.90
30174;DHT22;16985;50.814;8.530;2023-05-07T01:38:10;13.50;99.90
30174;DHT22;16985;50.814;8.530;2023-05-07T01:40:45;13.50;99.90
30174;DHT22;16985;50.814;8.530;2023-05-07T01:43:12;13.50;99.90
30174;DHT22;16985;50.814;8.530;2023-05-07T01:45:38;13.60;99.90
30174;DHT22;16985;50.814;8.530;2023-05-07T01:48:06;13.40;99.90
30174;DHT22;16985;50.814;8.530;2023-05-07T01:50:42;13.80;99.90
30174;DHT22;16985;50.814;8.530;2023-05-07T01:53:09;13.40;99.90
30174;DHT22;16985;50.814;8.530;2023-05-07T01:55:34;13.40;99.90
30174;DHT22;16985;50.814;8.530;2023-05-07T01:58:03;13.40;99.90
30174;DHT22;16985;50.814;8.530;2023-05-07T02:00:30;13.40;99.90
30174;DHT22;16985;50.814;8.530;2023-05-07T02:02:59;13.30;99.90
30174;DHT22;16985;50.814;8.530;2023-05-07T02:05:37;13.40;99.90
30174;DHT22;16985;50.814;8.530;2023-05-07T02:08:09;13.40;99.90
30174;DHT22;16985;50.814;8.530;2023-05-07T02:10:36;13.40;99.90
30174;DHT22;16985;50.814;8.530;2023-05-07T02:13:04;13.30;99.90
30174;DHT22;16985;50.814;8.530;2023-05-07T02:15:30;13.30;99.90
30174;DHT22;16985;50.814;8.530;2023-05-07T02:18:05;13.30;99.90
30174;DHT22;16985;50.814;8.530;2023-05-07T02:20:32;13.20;99.90
30174;DHT22;16985;50.814;8.530;2023-05-07T02:22:58;13.30;99.90
30174;DHT22;16985;50.814;8.530;2023-05-07T02:25:27;13.30;99.90
30174;DHT22;16985;50.814;8.530;2023-05-07T02:27:53;13.20;99.90
30174;DHT22;16985;50.814;8.530;2023-05-07T02:30:22;13.20;99.90
30174;DHT22;16985;50.814;8.530;2023-05-07T02:32:52;13.20;99.90
30174;DHT22;16985;50.814;8.530;2023-05-07T02:35:18;13.20;99.90
30174;DHT22;16985;50.814;8.530;2023-05-07T02:37:44;13.20;99.90
30174;DHT22;16985;50.814;8.530;2023-05-07T02:40:10;13.20;99.90
30174;DHT22;16985;50.814;8.530;2023-05-07T02:42:37;13.20;99.90
30174;DHT22;16985;50.814;8.530;2023-05-07T02:45:03;13.20;99.90
30174;DHT22;16985;50.814;8.530;2023-05-07T02:47:30;13.10;99.90
30174;DHT22;16985;50.814;8.530;2023-05-07T02:49:57;13.10;99.90
30174;DHT22;16985;50.814;8.530;2023-05-07T02:52:35;13.10;99.90
30174;DHT22;16985;50.814;8.530;2023-05-07T02:55:01;13.10;99.90
30174;DHT22;16985;50.814;8.530;2023-05-07T02:57:28;13.10;99.90
30174;DHT22;16985;50.814;8.530;2023-05-07T02:59:54;13.10;99.90
30174;DHT22;16985;50.814;8.530;2023-05-07T03:02:21;13.10;99.90
30174;DHT22;16985;50.814;8.530;2023-05-07T03:04:47;13.10;99.90
30174;DHT22;16985;50.814;8.530;2023-05-07T03:07:13;13.10;99.90
30174;DHT22;16985;50.814;8.530;2023-05-07T03:09:39;13.10;99.90
30174;DHT22;16985;50.814;8.530;2023-05-07T03:12:06;13.00;99.90
30174;DHT22;16985;50.814;8.530;2023-05-07T03:14:32;13.00;99.90
30174;DHT22;16985;50.814;8.530;2023-05-07T03:16:59;13.00;99.90
30174;DHT22;16985;50.814;8.530;2023-05-07T03:19:24;13.00;99.90
30174;DHT22;16985;50.814;8.530;2023-05-07T03:21:51;13.00;99.90
30174;DHT22;16985;50.814;8.530;2023-05-07T03:24:17;13.00;99.90
30174;DHT22;16985;50.814;8.530;2023-05-07T03:26:43;12.90;99.90
30174;DHT22;16985;50.814;8.530;2023-05-07T03:29:09;12.90;99.90
30174;DHT22;16985;50.814;8.530;2023-05-07T03:31:35;12.90;99.90
30174;DHT22;16985;50.814;8.530;2023-05-07T03:34:01;12.90;99.90
30174;DHT22;16985;50.814;8.530;2023-05-07T03:36:27;12.90;99.90
30174;DHT22;16985;50.814;8.530;2023-05-07T03:38:55;12.90;99.90
30174;DHT22;16985;50.814;8.530;2023-05-07T03:41:24;12.90;99.90
30174;DHT22;16985;50.814;8.530;2023-05-07T03:43:51;12.90;99.90
30174;DHT22;16985;50.814;8.530;2023-05-07T03:46:17;12.80;99.90
30174;DHT22;16985;50.814;8.530;2023-05-07T03:48:43;12.80;99.90
30174;DHT22;16985;50.814;8.530;2023-05-07T03:51:12;12.80;99.90
30174;DHT22;16985;50.814;8.530;2023-05-07T03:53:53;12.80;99.90
30174;DHT22;16985;50.814;8.530;2023-05-07T03:56:20;12.80;99.90
30174;DHT22;16985;50.814;8.530;2023-05-07T03:58:49;12.80;99.90
30174;DHT22;16985;50.814;8.530;2023-05-07T04:01:15;12.70;99.90
30174;DHT22;16985;50.814;8.530;2023-05-07T04:03:41;12.80;99.90
30174;DHT22;16985;50.814;8.530;2023-05-07T04:06:07;12.80;99.90
30174;DHT22;16985;50.814;8.530;2023-05-07T04:08:34;12.80;99.90
30174;DHT22;16985;50.814;8.530;2023-05-07T04:11:02;12.80;99.90
30174;DHT22;16985;50.814;8.530;2023-05-07T04:13:30;12.80;99.90
30174;DHT22;16985;50.814;8.530;2023-05-07T04:15:57;12.80;99.90
30174;DHT22;16985;50.814;8.530;2023-05-07T04:18:25;12.80;99.90
30174;DHT22;16985;50.814;8.530;2023-05-07T04:20:51;12.70;99.90
30174;DHT22;16985;50.814;8.530;2023-05-07T04:23:17;12.70;99.90
30174;DHT22;16985;50.814;8.530;2023-05-07T04:25:44;12.70;99.90
30174;DHT22;16985;50.814;8.530;2023-05-07T04:28:24;12.70;99.90
30174;DHT22;16985;50.814;8.530;2023-05-07T04:30:50;12.70;99.90
30174;DHT22;16985;50.814;8.530;2023-05-07T04:33:18;12.80;99.90
30174;DHT22;16985;50.814;8.530;2023-05-07T04:35:46;12.70;99.90
30174;DHT22;16985;50.814;8.530;2023-05-07T04:38:12;12.70;99.90
30174;DHT22;16985;50.814;8.530;2023-05-07T04:40:39;12.70;99.90
30174;DHT22;16985;50.814;8.530;2023-05-07T04:43:08;12.70;99.90
30174;DHT22;16985;50.814;8.530;2023-05-07T04:45:40;12.80;99.90
30174;DHT22;16985;50.814;8.530;2023-05-07T04:48:09;11.90;99.90
30174;DHT22;16985;50.814;8.530;2023-05-07T04:50:37;12.70;99.90
30174;DHT22;16985;50.814;8.530;2023-05-07T04:53:04;12.80;99.90
30174;DHT22;16985;50.814;8.530;2023-05-07T04:55:30;12.80;99.90
30174;DHT22;16985;50.814;8.530;2023-05-07T04:57:56;12.80;99.90
30174;DHT22;16985;50.814;8.530;2023-05-07T05:00:23;12.80;99.90
30174;DHT22;16985;50.814;8.530;2023-05-07T05:02:51;12.80;99.90
30174;DHT22;16985;50.814;8.530;2023-05-07T05:05:20;12.80;99.90
30174;DHT22;16985;50.814;8.530;2023-05-07T05:07:48;12.80;99.90
30174;DHT22;16985;50.814;8.530;2023-05-07T05:10:18;12.90;99.90
30174;DHT22;16985;50.814;8.530;2023-05-07T05:12:47;12.80;99.90
30174;DHT22;16985;50.814;8.530;2023-05-07T05:15:13;12.90;99.90
30174;DHT22;16985;50.814;8.530;2023-05-07T05:17:41;12.90;99.90
30174;DHT22;16985;50.814;8.530;2023-05-07T05:20:07;12.90;99.90
30174;DHT22;16985;50.814;8.530;2023-05-07T05:22:36;12.90;99.90
30174;DHT22;16985;50.814;8.530;2023-05-07T05:25:02;12.90;99.90
30174;DHT22;16985;50.814;8.530;2023-05-07T05:27:28;12.90;99.90
30174;DHT22;16985;50.814;8.530;2023-05-07T05:29:55;12.90;99.90
30174;DHT22;16985;50.814;8.530;2023-05-07T05:32:22;13.60;99.90
30174;DHT22;16985;50.814;8.530;2023-05-07T05:34:49;13.00;99.90
30174;DHT22;16985;50.814;8.530;2023-05-07T05:37:16;13.00;99.90
30174;DHT22;16985;50.814;8.530;2023-05-07T05:39:43;13.00;99.90
30174;DHT22;16985;50.814;8.530;2023-05-07T05:42:19;13.00;99.90
30174;DHT22;16985;50.814;8.530;2023-05-07T05:44:45;13.00;99.90
30174;DHT22;16985;50.814;8.530;2023-05-07T05:47:11;13.00;99.90
30174;DHT22;16985;50.814;8.530;2023-05-07T05:49:37;13.00;99.90
30174;DHT22;16985;50.814;8.530;2023-05-07T05:52:05;13.10;99.90
30174;DHT22;16985;50.814;8.530;2023-05-07T05:54:31;13.10;99.90
30174;DHT22;16985;50.814;8.530;2023-05-07T05:56:57;13.10;99.90
30174;DHT22;16985;50.814;8.530;2023-05-07T05:59:24;13.10;99.90
30174;DHT22;16985;50.814;8.530;2023-05-07T06:01:52;13.20;99.90
30174;DHT22;16985;50.814;8.530;2023-05-07T06:04:18;13.80;99.90
30174;DHT22;16985;50.814;8.530;2023-05-07T06:06:44;13.40;99.90
30174;DHT22;16985;50.814;8.530;2023-05-07T06:09:11;13.20;99.90
30174;DHT22;16985;50.814;8.530;2023-05-07T06:11:41;13.20;99.90
30174;DHT22;16985;50.814;8.530;2023-05-07T06:14:07;13.20;99.90
30174;DHT22;16985;50.814;8.530;2023-05-07T06:16:34;13.30;99.90
30174;DHT22;16985;50.814;8.530;2023-05-07T06:19:02;13.30;99.90
30174;DHT22;16985;50.814;8.530;2023-05-07T06:21:28;13.30;99.90
30174;DHT22;16985;50.814;8.530;2023-05-07T06:23:54;13.40;99.90
30174;DHT22;16985;50.814;8.530;2023-05-07T06:26:20;13.50;99.90
30174;DHT22;16985;50.814;8.530;2023-05-07T06:28:47;13.40;99.90
30174;DHT22;16985;50.814;8.530;2023-05-07T06:31:16;13.30;99.90
30174;DHT22;16985;50.814;8.530;2023-05-07T06:33:51;13.40;99.90
30174;DHT22;16985;50.814;8.530;2023-05-07T06:36:17;13.40;99.90
30174;DHT22;16985;50.814;8.530;2023-05-07T06:38:44;13.50;99.90
30174;DHT22;16985;50.814;8.530;2023-05-07T06:41:11;13.50;99.90
30174;DHT22;16985;50.814;8.530;2023-05-07T06:43:38;13.50;99.90
30174;DHT22;16985;50.814;8.530;2023-05-07T06:46:33;13.50;99.90
30174;DHT22;16985;50.814;8.530;2023-05-07T06:48:59;13.50;99.90
30174;DHT22;16985;50.814;8.530;2023-05-07T06:51:26;13.50;99.90
30174;DHT22;16985;50.814;8.530;2023-05-07T06:53:53;13.60;99.90
30174;DHT22;16985;50.814;8.530;2023-05-07T06:56:19;13.60;99.90
30174;DHT22;16985;50.814;8.530;2023-05-07T06:58:45;13.60;99.90
30174;DHT22;16985;50.814;8.530;2023-05-07T07:01:11;13.60;99.90
30174;DHT22;16985;50.814;8.530;2023-05-07T07:03:49;13.70;99.90
30174;DHT22;16985;50.814;8.530;2023-05-07T07:06:15;13.70;99.90
30174;DHT22;16985;50.814;8.530;2023-05-07T07:08:42;13.70;99.90
30174;DHT22;16985;50.814;8.530;2023-05-07T07:11:10;13.80;99.90
30174;DHT22;16985;50.814;8.530;2023-05-07T07:13:45;13.80;99.90
30174;DHT22;16985;50.814;8.530;2023-05-07T07:16:11;13.90;99.90
30174;DHT22;16985;50.814;8.530;2023-05-07T07:18:38;13.90;99.90
30174;DHT22;16985;50.814;8.530;2023-05-07T07:21:05;14.90;99.90
30174;DHT22;16985;50.814;8.530;2023-05-07T07:23:32;14.10;99.90
30174;DHT22;16985;50.814;8.530;2023-05-07T07:25:58;14.20;99.90
30174;DHT22;16985;50.814;8.530;2023-05-07T07:28:26;14.20;99.90
30174;DHT22;16985;50.814;8.530;2023-05-07T07:30:52;14.20;99.90
30174;DHT22;16985;50.814;8.530;2023-05-07T07:33:19;14.30;99.90
30174;DHT22;16985;50.814;8.530;2023-05-07T07:35:45;14.40;99.90
30174;DHT22;16985;50.814;8.530;2023-05-07T07:38:11;14.40;99.90
30174;DHT22;16985;50.814;8.530;2023-05-07T07:40:38;14.40;99.90
30174;DHT22;16985;50.814;8.530;2023-05-07T07:43:06;14.50;99.90
30174;DHT22;16985;50.814;8.530;2023-05-07T07:45:32;14.50;99.90
30174;DHT22;16985;50.814;8.530;2023-05-07T07:48:00;14.60;99.90
30174;DHT22;16985;50.814;8.530;2023-05-07T07:50:27;14.60;99.90
30174;DHT22;16985;50.814;8.530;2023-05-07T07:52:53;14.70;99.90
30174;DHT22;16985;50.814;8.530;2023-05-07T07:55:20;14.70;99.90
30174;DHT22;16985;50.814;8.530;2023-05-07T07:57:50;14.70;99.90
30174;DHT22;16985;50.814;8.530;2023-05-07T08:00:16;15.20;99.90
30174;DHT22;16985;50.814;8.530;2023-05-07T08:02:42;14.90;99.90
30174;DHT22;16985;50.814;8.530;2023-05-07T08:05:12;14.90;99.90
30174;DHT22;16985;50.814;8.530;2023-05-07T08:07:39;15.00;99.90
30174;DHT22;16985;50.814;8.530;2023-05-07T08:10:08;15.00;99.90
30174;DHT22;16985;50.814;8.530;2023-05-07T08:12:35;15.00;99.90
30174;DHT22;16985;50.814;8.530;2023-05-07T08:15:09;15.10;99.90
30174;DHT22;16985;50.814;8.530;2023-05-07T08:17:36;15.10;99.90
30174;DHT22;16985;50.814;8.530;2023-05-07T08:20:02;15.20;99.90
30174;DHT22;16985;50.814;8.530;2023-05-07T08:22:29;15.20;99.90
30174;DHT22;16985;50.814;8.530;2023-05-07T08:24:54;15.20;99.90
30174;DHT22;16985;50.814;8.530;2023-05-07T08:27:21;15.30;99.90
30174;DHT22;16985;50.814;8.530;2023-05-07T08:29:47;15.30;99.90
30174;DHT22;16985;50.814;8.530;2023-05-07T08:32:15;15.30;99.90
30174;DHT22;16985;50.814;8.530;2023-05-07T08:34:41;15.40;99.90
30174;DHT22;16985;50.814;8.530;2023-05-07T08:37:07;15.40;99.90
30174;DHT22;16985;50.814;8.530;2023-05-07T08:39:34;15.40;99.90
30174;DHT22;16985;50.814;8.530;2023-05-07T08:42:01;16.60;99.90
30174;DHT22;16985;50.814;8.530;2023-05-07T08:44:33;15.50;99.90
30174;DHT22;16985;50.814;8.530;2023-05-07T08:47:03;15.60;99.90
30174;DHT22;16985;50.814;8.530;2023-05-07T08:49:33;15.60;99.90
30174;DHT22;16985;50.814;8.530;2023-05-07T08:52:00;15.70;99.90
30174;DHT22;16985;50.814;8.530;2023-05-07T08:54:27;15.70;99.90
30174;DHT22;16985;50.814;8.530;2023-05-07T08:56:55;15.80;99.90
30174;DHT22;16985;50.814;8.530;2023-05-07T08:59:22;15.80;99.90
30174;DHT22;16985;50.814;8.530;2023-05-07T09:01:48;15.90;99.90
30174;DHT22;16985;50.814;8.530;2023-05-07T09:04:15;15.90;99.90
30174;DHT22;16985;50.814;8.530;2023-05-07T09:06:42;16.00;99.90
30174;DHT22;16985;50.814;8.530;2023-05-07T09:09:14;16.10;99.90
30174;DHT22;16985;50.814;8.530;2023-05-07T09:11:41;16.20;99.90
30174;DHT22;16985;50.814;8.530;2023-05-07T09:14:08;16.20;99.90
30174;DHT22;16985;50.814;8.530;2023-05-07T09:16:38;16.30;99.90
30174;DHT22;16985;50.814;8.530;2023-05-07T09:19:15;16.40;99.90
30174;DHT22;16985;50.814;8.530;2023-05-07T09:21:44;16.40;99.90
30174;DHT22;16985;50.814;8.530;2023-05-07T09:24:11;16.50;99.90
30174;DHT22;16985;50.814;8.530;2023-05-07T09:26:42;16.50;99.90
30174;DHT22;16985;50.814;8.530;2023-05-07T09:29:10;16.60;99.90
30174;DHT22;16985;50.814;8.530;2023-05-07T09:31:37;16.60;99.90
30174;DHT22;16985;50.814;8.530;2023-05-07T09:34:05;16.70;99.90
30174;DHT22;16985;50.814;8.530;2023-05-07T09:36:33;16.90;99.90
30174;DHT22;16985;50.814;8.530;2023-05-07T09:39:00;17.00;99.90
30174;DHT22;16985;50.814;8.530;2023-05-07T09:41:26;17.10;99.90
30174;DHT22;16985;50.814;8.530;2023-05-07T09:44:03;17.20;99.90
30174;DHT22;16985;50.814;8.530;2023-05-07T09:46:38;17.30;99.90
30174;DHT22;16985;50.814;8.530;2023-05-07T09:49:21;17.40;99.90
30174;DHT22;16985;50.814;8.530;2023-05-07T09:51:51;17.40;99.90
30174;DHT22;16985;50.814;8.530;2023-05-07T09:54:19;17.50;99.90
30174;DHT22;16985;50.814;8.530;2023-05-07T09:56:48;17.60;99.90
30174;DHT22;16985;50.814;8.530;2023-05-07T09:59:16;17.70;99.90
30174;DHT22;16985;50.814;8.530;2023-05-07T10:01:44;17.70;99.90
30174;DHT22;16985;50.814;8.530;2023-05-07T10:04:11;17.70;99.90
30174;DHT22;16985;50.814;8.530;2023-05-07T10:06:39;17.80;99.90
30174;DHT22;16985;50.814;8.530;2023-05-07T10:09:06;17.80;99.90
30174;DHT22;16985;50.814;8.530;2023-05-07T10:11:33;17.90;99.90
30174;DHT22;16985;50.814;8.530;2023-05-07T10:14:00;17.90;99.90
30174;DHT22;16985;50.814;8.530;2023-05-07T10:16:31;18.00;99.90
30174;DHT22;16985;50.814;8.530;2023-05-07T10:19:03;18.10;99.90
30174;DHT22;16985;50.814;8.530;2023-05-07T10:21:36;18.20;99.90
30174;DHT22;16985;50.814;8.530;2023-05-07T10:24:14;18.30;99.80
30174;DHT22;16985;50.814;8.530;2023-05-07T10:26:45;18.40;98.90
30174;DHT22;16985;50.814;8.530;2023-05-07T10:29:21;18.50;98.10
30174;DHT22;16985;50.814;8.530;2023-05-07T10:31:59;18.60;97.10
30174;DHT22;16985;50.814;8.530;2023-05-07T10:34:36;18.60;96.10
30174;DHT22;16985;50.814;8.530;2023-05-07T10:37:04;18.70;96.10
30174;DHT22;16985;50.814;8.530;2023-05-07T10:39:39;18.70;95.80
30174;DHT22;16985;50.814;8.530;2023-05-07T10:42:13;18.80;95.30
30174;DHT22;16985;50.814;8.530;2023-05-07T10:44:45;18.90;95.20
30174;DHT22;16985;50.814;8.530;2023-05-07T10:47:18;19.00;94.80
30174;DHT22;16985;50.814;8.530;2023-05-07T10:52:23;19.10;94.10
30174;DHT22;16985;50.814;8.530;2023-05-07T10:57:47;19.20;93.20
30174;DHT22;16985;50.814;8.530;2023-05-07T11:06:11;19.30;93.10
30174;DHT22;16985;50.814;8.530;2023-05-07T11:08:56;19.40;95.80
30174;DHT22;16985;50.814;8.530;2023-05-07T11:11:49;19.30;92.60
30174;DHT22;16985;50.814;8.530;2023-05-07T11:17:11;19.40;92.40
30174;DHT22;16985;50.814;8.530;2023-05-07T11:19:54;19.40;92.40
30174;DHT22;16985;50.814;8.530;2023-05-07T11:22:39;19.50;92.10
30174;DHT22;16985;50.814;8.530;2023-05-07T11:25:29;19.70;92.30
30174;DHT22;16985;50.814;8.530;2023-05-07T11:28:11;19.80;92.40
30174;DHT22;16985;50.814;8.530;2023-05-07T11:30:46;20.00;92.40
30174;DHT22;16985;50.814;8.530;2023-05-07T11:33:17;20.20;91.80
30174;DHT22;16985;50.814;8.530;2023-05-07T11:35:44;20.40;94.70
30174;DHT22;16985;50.814;8.530;2023-05-07T11:38:13;20.40;90.70
30174;DHT22;16985;50.814;8.530;2023-05-07T11:40:58;20.50;90.50
30174;DHT22;16985;50.814;8.530;2023-05-07T11:43:33;20.60;90.10
30174;DHT22;16985;50.814;8.530;2023-05-07T11:46:11;20.70;89.60
30174;DHT22;16985;50.814;8.530;2023-05-07T11:48:38;20.80;90.00
30174;DHT22;16985;50.814;8.530;2023-05-07T11:51:05;20.90;89.20
30174;DHT22;16985;50.814;8.530;2023-05-07T11:53:36;20.90;88.70
30174;DHT22;16985;50.814;8.530;2023-05-07T11:56:08;21.10;87.70
30174;DHT22;16985;50.814;8.530;2023-05-07T11:58:38;21.20;87.20
30174;DHT22;16985;50.814;8.530;2023-05-07T12:01:06;21.20;87.00
30174;DHT22;16985;50.814;8.530;2023-05-07T12:03:35;21.20;86.70
30174;DHT22;16985;50.814;8.530;2023-05-07T12:06:05;21.30;85.30
30174;DHT22;16985;50.814;8.530;2023-05-07T12:08:32;21.30;84.30
30174;DHT22;16985;50.814;8.530;2023-05-07T12:10:58;21.20;84.30
30174;DHT22;16985;50.814;8.530;2023-05-07T12:13:25;21.10;84.60
30174;DHT22;16985;50.814;8.530;2023-05-07T12:15:58;21.10;84.50
30174;DHT22;16985;50.814;8.530;2023-05-07T12:18:24;21.10;85.10
30174;DHT22;16985;50.814;8.530;2023-05-07T12:20:50;21.10;85.10
30174;DHT22;16985;50.814;8.530;2023-05-07T12:23:17;21.00;85.40
30174;DHT22;16985;50.814;8.530;2023-05-07T12:25:43;21.00;85.80
30174;DHT22;16985;50.814;8.530;2023-05-07T12:28:17;21.00;85.80
30174;DHT22;16985;50.814;8.530;2023-05-07T12:30:46;21.00;85.50
30174;DHT22;16985;50.814;8.530;2023-05-07T12:33:24;21.00;85.60
30174;DHT22;16985;50.814;8.530;2023-05-07T12:35:50;21.40;86.40
30174;DHT22;16985;50.814;8.530;2023-05-07T12:38:19;20.90;86.30
30174;DHT22;16985;50.814;8.530;2023-05-07T12:40:47;20.90;85.90
30174;DHT22;16985;50.814;8.530;2023-05-07T12:43:26;20.80;85.50
30174;DHT22;16985;50.814;8.530;2023-05-07T12:45:57;21.00;85.40
30174;DHT22;16985;50.814;8.530;2023-05-07T12:48:27;21.00;85.40
30174;DHT22;16985;50.814;8.530;2023-05-07T12:50:54;21.00;85.20
30174;DHT22;16985;50.814;8.530;2023-05-07T12:53:21;21.30;85.50
30174;DHT22;16985;50.814;8.530;2023-05-07T12:55:49;21.20;85.20
30174;DHT22;16985;50.814;8.530;2023-05-07T12:58:37;21.20;84.60
30174;DHT22;16985;50.814;8.530;2023-05-07T13:01:07;21.30;84.30
30174;DHT22;16985;50.814;8.530;2023-05-07T13:03:36;21.30;83.50
30174;DHT22;16985;50.814;8.530;2023-05-07T13:06:07;21.40;83.40
30174;DHT22;16985;50.814;8.530;2023-05-07T13:08:40;20.10;82.00
30174;DHT22;16985;50.814;8.530;2023-05-07T13:11:09;21.40;82.40
30174;DHT22;16985;50.814;8.530;2023-05-07T13:13:38;21.70;82.50
30174;DHT22;16985;50.814;8.530;2023-05-07T13:16:14;21.70;82.00
30174;DHT22;16985;50.814;8.530;2023-05-07T13:18:40;21.70;81.00
30174;DHT22;16985;50.814;8.530;2023-05-07T13:21:08;21.70;81.10
30174;DHT22;16985;50.814;8.530;2023-05-07T13:23:35;21.80;80.70
30174;DHT22;16985;50.814;8.530;2023-05-07T13:26:03;21.90;80.30
30174;DHT22;16985;50.814;8.530;2023-05-07T13:28:29;21.90;80.80
30174;DHT22;16985;50.814;8.530;2023-05-07T13:30:55;22.00;81.20
30174;DHT22;16985;50.814;8.530;2023-05-07T13:33:21;22.10;81.10
30174;DHT22;16985;50.814;8.530;2023-05-07T13:35:47;22.50;81.50
30174;DHT22;16985;50.814;8.530;2023-05-07T13:38:14;22.20;80.00
30174;DHT22;16985;50.814;8.530;2023-05-07T13:40:41;22.30;79.60
30174;DHT22;16985;50.814;8.530;2023-05-07T13:43:07;22.40;79.10
30174;DHT22;16985;50.814;8.530;2023-05-07T13:45:34;22.50;79.00
30174;DHT22;16985;50.814;8.530;2023-05-07T13:48:00;22.50;78.70
30174;DHT22;16985;50.814;8.530;2023-05-07T13:50:29;22.50;77.90
30174;DHT22;16985;50.814;8.530;2023-05-07T13:52:59;22.50;77.50
30174;DHT22;16985;50.814;8.530;2023-05-07T13:55:29;22.50;77.40
30174;DHT22;16985;50.814;8.530;2023-05-07T13:58:01;22.40;77.20
30174;DHT22;16985;50.814;8.530;2023-05-07T14:00:29;22.40;77.20
30174;DHT22;16985;50.814;8.530;2023-05-07T14:02:56;22.30;77.20
30174;DHT22;16985;50.814;8.530;2023-05-07T14:05:23;22.40;77.90
30174;DHT22;16985;50.814;8.530;2023-05-07T14:07:51;22.20;78.40
30174;DHT22;16985;50.814;8.530;2023-05-07T14:10:18;22.30;79.40
30174;DHT22;16985;50.814;8.530;2023-05-07T14:12:45;22.30;79.20
30174;DHT22;16985;50.814;8.530;2023-05-07T14:15:13;22.30;78.90
30174;DHT22;16985;50.814;8.530;2023-05-07T14:17:39;22.30;78.80
30174;DHT22;16985;50.814;8.530;2023-05-07T14:20:05;22.20;78.60
30174;DHT22;16985;50.814;8.530;2023-05-07T14:22:32;22.10;78.20
30174;DHT22;16985;50.814;8.530;2023-05-07T14:24:59;22.10;78.50
30174;DHT22;16985;50.814;8.530;2023-05-07T14:27:24;21.90;78.60
30174;DHT22;16985;50.814;8.530;2023-05-07T14:29:59;21.90;78.60
30174;DHT22;16985;50.814;8.530;2023-05-07T14:32:26;21.80;78.50
30174;DHT22;16985;50.814;8.530;2023-05-07T14:34:51;21.70;78.90
30174;DHT22;16985;50.814;8.530;2023-05-07T14:37:19;21.70;79.30
30174;DHT22;16985;50.814;8.530;2023-05-07T14:39:45;21.70;79.80
30174;DHT22;16985;50.814;8.530;2023-05-07T14:42:11;21.70;80.40
30174;DHT22;16985;50.814;8.530;2023-05-07T14:44:37;21.70;79.90
30174;DHT22;16985;50.814;8.530;2023-05-07T14:47:05;21.70;80.00
30174;DHT22;16985;50.814;8.530;2023-05-07T14:49:32;21.60;79.30
30174;DHT22;16985;50.814;8.530;2023-05-07T14:51:59;21.60;79.40
30174;DHT22;16985;50.814;8.530;2023-05-07T14:54:28;22.10;80.00
30174;DHT22;16985;50.814;8.530;2023-05-07T14:56:59;19.20;78.10
30174;DHT22;16985;50.814;8.530;2023-05-07T14:59:24;21.40;80.10
30174;DHT22;16985;50.814;8.530;2023-05-07T15:01:51;21.40;80.40
30174;DHT22;16985;50.814;8.530;2023-05-07T15:04:17;21.40;80.50
30174;DHT22;16985;50.814;8.530;2023-05-07T15:06:59;22.00;80.60
30174;DHT22;16985;50.814;8.530;2023-05-07T15:09:26;21.30;80.30
30174;DHT22;16985;50.814;8.530;2023-05-07T15:11:52;21.30;80.20
30174;DHT22;16985;50.814;8.530;2023-05-07T15:14:18;21.20;80.10
30174;DHT22;16985;50.814;8.530;2023-05-07T15:16:44;21.30;80.30
30174;DHT22;16985;50.814;8.530;2023-05-07T15:19:10;21.30;80.50
30174;DHT22;16985;50.814;8.530;2023-05-07T15:21:36;21.30;80.50
30174;DHT22;16985;50.814;8.530;2023-05-07T15:24:02;21.20;80.60
30174;DHT22;16985;50.814;8.530;2023-05-07T15:26:28;21.20;80.40
30174;DHT22;16985;50.814;8.530;2023-05-07T15:28:55;21.20;80.60
30174;DHT22;16985;50.814;8.530;2023-05-07T15:31:24;21.10;81.10
30174;DHT22;16985;50.814;8.530;2023-05-07T15:33:51;21.10;81.00
30174;DHT22;16985;50.814;8.530;2023-05-07T15:36:22;21.10;80.70
30174;DHT22;16985;50.814;8.530;2023-05-07T15:38:51;21.00;81.10
30174;DHT22;16985;50.814;8.530;2023-05-07T15:41:17;21.00;81.30
30174;DHT22;16985;50.814;8.530;2023-05-07T15:43:46;21.10;81.50
30174;DHT22;16985;50.814;8.530;2023-05-07T15:46:23;20.80;81.30
30174;DHT22;16985;50.814;8.530;2023-05-07T15:48:50;20.90;81.70
30174;DHT22;16985;50.814;8.530;2023-05-07T15:51:18;20.90;81.90
30174;DHT22;16985;50.814;8.530;2023-05-07T15:53:45;20.90;81.70